Time;durP1;ratioP1;P1;durP2;ratioP2;P2;SDS_P1;SDS_P2;PMS_P1;PMS_P2;Temp;Humidity;BMP_temperature;BMP_pressure;BME280_temperature;BME280_humidity;BME280_pressure;Samples;Min_cycle;Max_cycle;Signal;HPM_P1;HPM_P2
2021/10/10 00:02:05;;;;;;;23.47;15.07;;;4.40;99.90;;;;;;4956947;28;20054;-74
2021/10/10 00:04:31;;;;;;;42.30;16.30;;;4.40;99.90;;;;;;4954897;29;20070;-74
2021/10/10 00:06:57;;;;;;;27.10;14.93;;;4.30;99.90;;;;;;4955006;29;20034;-74
2021/10/10 00:09:22;;;;;;;26.40;14.23;;;4.30;99.90;;;;;;4954308;29;20027;-74
2021/10/10 00:11:48;;;;;;;25.00;14.70;;;4.30;99.90;;;;;;4954135;29;20031;-74
2021/10/10 00:14:13;;;;;;;22.30;14.13;;;4.20;99.90;;;;;;4953725;28;20020;-74
2021/10/10 00:16:39;;;;;;;26.17;14.40;;;4.20;99.90;;;;;;4954401;29;20075;-74
2021/10/10 00:19:04;;;;;;;19.37;13.17;;;4.20;99.90;;;;;;4954625;29;20123;-74
2021/10/10 00:21:30;;;;;;;21.40;14.17;;;4.10;99.90;;;;;;4954198;29;20480;-74
2021/10/10 00:23:56;;;;;;;20.70;13.63;;;4.10;99.90;;;;;;4954283;29;20027;-74
2021/10/10 00:26:21;;;;;;;23.80;14.30;;;4.10;99.90;;;;;;4954070;29;20101;-74
2021/10/10 00:28:47;;;;;;;22.57;13.87;;;4.10;99.90;;;;;;4937182;29;20046;-74
2021/10/10 00:31:12;;;;;;;28.80;15.23;;;4.00;99.90;;;;;;4953657;29;20054;-74
2021/10/10 00:33:38;;;;;;;20.67;14.07;;;4.00;99.90;;;;;;4954058;29;20027;-74
2021/10/10 00:36:03;;;;;;;21.47;14.13;;;3.90;99.90;;;;;;4954078;29;20395;-74
2021/10/10 00:38:29;;;;;;;24.93;14.23;;;3.90;99.90;;;;;;4954002;29;20317;-74
2021/10/10 00:40:55;;;;;;;21.10;14.80;;;3.80;99.90;;;;;;4953821;29;20031;-74
2021/10/10 00:43:20;;;;;;;22.47;13.63;;;3.80;99.90;;;;;;4954022;29;20039;-74
2021/10/10 00:45:47;;;;;;;26.40;14.20;;;3.80;99.90;;;;;;4954028;29;20034;-74
2021/10/10 00:48:13;;;;;;;23.90;14.87;;;3.80;99.90;;;;;;4953819;29;20035;-74
2021/10/10 00:50:39;;;;;;;23.10;14.97;;;3.80;99.90;;;;;;4947023;28;20122;-74
2021/10/10 00:53:05;;;;;;;29.47;16.00;;;3.80;99.90;;;;;;4953798;29;20028;-74
2021/10/10 00:55:33;;;;;;;24.33;15.23;;;3.80;99.90;;;;;;4936369;29;20035;-74
2021/10/10 00:58:01;;;;;;;27.07;16.87;;;3.70;99.90;;;;;;4953923;29;20031;-74
2021/10/10 01:00:27;;;;;;;30.33;16.30;;;3.70;99.90;;;;;;4953553;28;20041;-74
2021/10/10 01:02:57;;;;;;;27.40;15.40;;;3.70;99.90;;;;;;4953411;29;20030;-74
2021/10/10 01:05:23;;;;;;;24.07;16.23;;;3.70;99.90;;;;;;4953419;29;20431;-74
2021/10/10 01:07:49;;;;;;;24.53;15.70;;;3.70;99.90;;;;;;4936166;29;20057;-74
2021/10/10 01:10:15;;;;;;;27.03;17.07;;;3.70;99.90;;;;;;4928771;29;20465;-74
2021/10/10 01:12:43;;;;;;;26.80;15.27;;;3.70;99.90;;;;;;4947366;29;20023;-74
2021/10/10 01:15:09;;;;;;;25.07;16.90;;;3.70;99.90;;;;;;4953155;29;20098;-74
2021/10/10 01:17:36;;;;;;;33.60;17.73;;;3.70;99.90;;;;;;4953329;29;20027;-74
2021/10/10 01:20:05;;;;;;;26.20;16.33;;;3.60;99.90;;;;;;4953168;29;20110;-74
2021/10/10 01:22:30;;;;;;;33.43;18.33;;;3.60;99.90;;;;;;4953113;29;20051;-74
2021/10/10 01:24:57;;;;;;;29.83;17.83;;;3.60;99.90;;;;;;4952893;28;20027;-74
2021/10/10 01:27:22;;;;;;;29.60;17.50;;;3.50;99.90;;;;;;4935476;29;20024;-74
2021/10/10 01:29:48;;;;;;;28.63;17.70;;;3.50;99.90;;;;;;4952494;29;20027;-74
2021/10/10 01:32:14;;;;;;;25.30;16.20;;;3.50;99.90;;;;;;4949760;29;20854;-74
2021/10/10 01:34:44;;;;;;;25.23;15.93;;;3.50;99.90;;;;;;4952943;29;20107;-74
2021/10/10 01:37:11;;;;;;;26.73;17.27;;;3.50;99.90;;;;;;4952846;29;20025;-74
2021/10/10 01:39:36;;;;;;;31.20;16.47;;;3.50;99.90;;;;;;4952517;29;20040;-74
2021/10/10 01:42:02;;;;;;;25.77;17.13;;;3.40;99.90;;;;;;4952864;29;20030;-74
2021/10/10 01:44:28;;;;;;;30.57;18.13;;;3.40;99.90;;;;;;4953078;29;20035;-74
2021/10/10 01:46:53;;;;;;;29.23;16.63;;;3.50;99.90;;;;;;4952684;29;20107;-74
2021/10/10 01:49:19;;;;;;;25.50;16.20;;;3.40;99.90;;;;;;4952412;29;20023;-74
2021/10/10 01:51:44;;;;;;;30.07;17.20;;;3.40;99.90;;;;;;4952673;29;20035;-74
2021/10/10 01:54:10;;;;;;;30.67;17.27;;;3.40;99.90;;;;;;4950407;29;20114;-74
2021/10/10 01:56:35;;;;;;;30.47;18.03;;;3.40;99.90;;;;;;4952512;29;20031;-74
2021/10/10 01:59:01;;;;;;;33.77;17.90;;;3.40;99.90;;;;;;4952835;28;20357;-74
2021/10/10 02:01:27;;;;;;;27.93;18.20;;;3.30;99.90;;;;;;4952275;28;20042;-74
2021/10/10 02:03:52;;;;;;;29.67;17.23;;;3.40;99.90;;;;;;4952418;29;20384;-74
2021/10/10 02:06:18;;;;;;;28.73;17.77;;;3.40;99.90;;;;;;4952683;29;20055;-74
2021/10/10 02:08:43;;;;;;;29.23;17.40;;;3.30;99.90;;;;;;4952260;29;20034;-74
2021/10/10 02:11:09;;;;;;;29.90;17.77;;;3.30;99.90;;;;;;4952566;29;20581;-73
2021/10/10 02:13:35;;;;;;;26.50;16.47;;;3.30;99.90;;;;;;4952335;28;20449;-74
2021/10/10 02:16:00;;;;;;;30.30;17.67;;;3.30;99.90;;;;;;4952453;29;20031;-73
2021/10/10 02:18:26;;;;;;;28.00;17.27;;;3.20;99.90;;;;;;4952604;29;20038;-74
2021/10/10 02:20:51;;;;;;;34.17;17.53;;;3.20;99.90;;;;;;4935240;29;20025;-73
2021/10/10 02:23:17;;;;;;;27.00;17.33;;;3.20;99.90;;;;;;4952549;29;20058;-73
2021/10/10 02:25:43;;;;;;;33.27;18.47;;;3.20;99.90;;;;;;4951613;29;20039;-74
2021/10/10 02:28:09;;;;;;;31.07;18.53;;;3.20;99.90;;;;;;4952231;29;20066;-74
2021/10/10 02:30:35;;;;;;;29.40;19.80;;;3.20;99.90;;;;;;4952508;29;20500;-74
2021/10/10 02:33:00;;;;;;;30.50;20.03;;;3.10;99.90;;;;;;4935272;29;20054;-73
2021/10/10 02:35:26;;;;;;;38.73;22.17;;;3.10;99.90;;;;;;4952205;29;20024;-74
2021/10/10 02:37:51;;;;;;;31.73;21.20;;;3.20;99.90;;;;;;4956336;28;20412;-72
2021/10/10 02:40:17;;;;;;;36.97;23.03;;;3.20;99.90;;;;;;4958450;29;20039;-72
2021/10/10 02:42:43;;;;;;;36.33;22.17;;;3.20;99.90;;;;;;4940825;29;20094;-72
2021/10/10 02:45:09;;;;;;;35.40;22.47;;;3.20;99.90;;;;;;4958154;29;20034;-72
2021/10/10 02:47:35;;;;;;;33.13;20.80;;;3.20;99.90;;;;;;4958197;29;20023;-72
2021/10/10 02:50:01;;;;;;;37.33;23.10;;;3.20;99.90;;;;;;4957980;29;20030;-72
2021/10/10 02:52:27;;;;;;;34.90;22.63;;;3.20;99.90;;;;;;4958076;29;20033;-72
2021/10/10 02:54:52;;;;;;;37.67;22.27;;;3.20;99.90;;;;;;4957867;29;20024;-72
2021/10/10 02:57:18;;;;;;;37.30;22.73;;;3.20;99.90;;;;;;4957799;29;20093;-72
2021/10/10 02:59:45;;;;;;;34.63;21.50;;;3.20;99.90;;;;;;4957922;29;20023;-72
2021/10/10 03:02:10;;;;;;;34.83;21.73;;;3.20;99.90;;;;;;4957721;29;20026;-72
2021/10/10 03:04:36;;;;;;;39.50;22.30;;;3.20;99.90;;;;;;4957717;29;20338;-72
2021/10/10 03:07:02;;;;;;;40.90;24.20;;;3.20;99.90;;;;;;4957613;29;20039;-72
2021/10/10 03:09:27;;;;;;;34.23;21.60;;;3.20;99.90;;;;;;4957448;29;20046;-72
2021/10/10 03:11:53;;;;;;;32.20;22.57;;;3.20;99.90;;;;;;4957681;29;20027;-73
2021/10/10 03:14:18;;;;;;;36.60;22.30;;;3.20;99.90;;;;;;4957469;29;20019;-72
2021/10/10 03:16:44;;;;;;;35.13;22.00;;;3.20;99.90;;;;;;4957690;29;20063;-72
2021/10/10 03:19:09;;;;;;;39.23;23.53;;;3.20;99.90;;;;;;4957604;29;20102;-72
2021/10/10 03:21:35;;;;;;;36.23;21.83;;;3.20;99.90;;;;;;4957536;29;20110;-72
2021/10/10 03:24:01;;;;;;;33.23;21.53;;;3.20;99.90;;;;;;4940146;29;20465;-72
2021/10/10 03:26:26;;;;;;;33.07;21.17;;;3.20;99.90;;;;;;4957479;29;20027;-73
2021/10/10 03:28:52;;;;;;;34.80;21.30;;;3.10;99.90;;;;;;4957434;29;20043;-72
2021/10/10 03:31:18;;;;;;;38.00;22.60;;;3.10;99.90;;;;;;4957313;29;20765;-72
2021/10/10 03:33:43;;;;;;;34.37;22.63;;;3.10;99.90;;;;;;4957326;29;20106;-72
2021/10/10 03:36:10;;;;;;;38.97;22.17;;;3.10;99.90;;;;;;4957218;29;20027;-73
2021/10/10 03:38:36;;;;;;;34.00;21.37;;;3.10;99.90;;;;;;4957282;29;20035;-72
2021/10/10 03:41:02;;;;;;;34.97;21.30;;;3.20;99.90;;;;;;4957402;29;20032;-73
2021/10/10 03:43:28;;;;;;;31.37;22.30;;;3.10;99.90;;;;;;4957099;29;20119;-72
2021/10/10 03:45:54;;;;;;;35.63;21.07;;;3.20;99.90;;;;;;4957000;29;20031;-72
2021/10/10 03:48:20;;;;;;;33.53;21.13;;;3.20;99.90;;;;;;4955857;28;20035;-72
2021/10/10 03:50:46;;;;;;;35.63;21.00;;;3.10;99.90;;;;;;4956933;29;20023;-73
2021/10/10 03:53:11;;;;;;;34.00;20.57;;;3.10;99.90;;;;;;4957085;29;20401;-73
2021/10/10 03:55:38;;;;;;;35.80;19.33;;;3.10;99.90;;;;;;4956905;29;20023;-72
2021/10/10 03:58:05;;;;;;;33.50;20.43;;;3.10;99.90;;;;;;4956661;29;20155;-73
2021/10/10 04:00:32;;;;;;;37.07;21.87;;;3.10;99.90;;;;;;4956932;29;20023;-72
2021/10/10 04:03:02;;;;;;;33.63;20.17;;;3.00;99.90;;;;;;4941685;29;20031;-72
2021/10/10 04:07:56;;;;;;;39.07;22.43;;;2.90;99.90;;;;;;4956553;29;20046;-72
2021/10/10 04:10:22;;;;;;;42.57;23.53;;;2.90;99.90;;;;;;4956597;29;20670;-72
2021/10/10 04:12:48;;;;;;;37.97;23.37;;;2.90;99.90;;;;;;4956657;29;20019;-72
2021/10/10 04:15:13;;;;;;;34.87;23.13;;;2.90;99.90;;;;;;4939270;29;20038;-72
2021/10/10 04:17:43;;;;;;;36.13;22.57;;;2.90;99.90;;;;;;4956308;29;20051;-72
2021/10/10 04:20:11;;;;;;;40.77;24.60;;;2.80;99.90;;;;;;4956365;29;20103;-72
2021/10/10 04:22:37;;;;;;;47.23;28.80;;;2.90;99.90;;;;;;4942989;29;20150;-73
2021/10/10 04:25:04;;;;;;;34.00;23.07;;;2.90;99.90;;;;;;4956786;29;20086;-72
2021/10/10 04:27:29;;;;;;;38.87;23.77;;;2.90;99.90;;;;;;4938960;29;20032;-72
2021/10/10 04:29:55;;;;;;;40.50;22.57;;;2.90;99.90;;;;;;4956352;29;20020;-72
2021/10/10 04:32:22;;;;;;;31.47;20.47;;;2.90;99.90;;;;;;4955944;29;20058;-72
2021/10/10 04:34:48;;;;;;;34.77;22.43;;;2.90;99.90;;;;;;4956073;29;20030;-72
2021/10/10 04:37:13;;;;;;;34.20;21.20;;;2.90;99.90;;;;;;4956253;29;20027;-72
2021/10/10 04:39:39;;;;;;;37.40;21.40;;;2.90;99.90;;;;;;4956170;29;20028;-72
2021/10/10 04:42:05;;;;;;;37.57;23.10;;;2.90;99.90;;;;;;4956403;29;20031;-73
2021/10/10 04:44:32;;;;;;;37.37;22.40;;;2.80;99.90;;;;;;4954381;29;20027;-74
2021/10/10 04:46:57;;;;;;;33.50;21.80;;;2.80;99.90;;;;;;4954350;29;20042;-74
2021/10/10 04:49:23;;;;;;;33.40;21.30;;;2.80;99.90;;;;;;4943116;29;20024;-73
2021/10/10 04:51:49;;;;;;;32.07;22.80;;;2.80;99.90;;;;;;4939728;29;20024;-73
2021/10/10 04:54:14;;;;;;;39.47;24.87;;;2.70;99.90;;;;;;4956352;29;20463;-72
2021/10/10 04:56:40;;;;;;;37.83;23.30;;;2.70;99.90;;;;;;4954457;29;20034;-76
2021/10/10 04:59:06;;;;;;;43.60;25.43;;;2.70;99.90;;;;;;4953052;28;20058;-76
2021/10/10 05:01:32;;;;;;;44.80;29.57;;;2.70;99.90;;;;;;4954649;29;20407;-72
2021/10/10 05:03:57;;;;;;;36.53;23.87;;;2.70;99.90;;;;;;4955428;29;20042;-72
2021/10/10 05:06:23;;;;;;;38.63;24.80;;;2.70;99.90;;;;;;4955568;29;20027;-72
2021/10/10 05:08:49;;;;;;;37.60;24.50;;;2.70;99.90;;;;;;4955361;29;20090;-72
2021/10/10 05:11:14;;;;;;;37.00;23.40;;;2.60;99.90;;;;;;4955412;29;20034;-72
2021/10/10 05:13:40;;;;;;;35.83;22.63;;;2.60;99.90;;;;;;4937978;29;20114;-72
2021/10/10 05:16:05;;;;;;;37.50;23.40;;;2.60;99.90;;;;;;4937946;29;20027;-72
2021/10/10 05:18:31;;;;;;;37.50;21.90;;;2.60;99.90;;;;;;4955491;29;20032;-72
2021/10/10 05:20:57;;;;;;;31.87;22.33;;;2.60;99.90;;;;;;4934547;29;20034;-72
2021/10/10 05:23:22;;;;;;;34.33;22.17;;;2.60;99.90;;;;;;4954165;29;20023;-72
2021/10/10 05:25:48;;;;;;;30.00;18.43;;;2.60;99.90;;;;;;4954728;29;20031;-72
2021/10/10 05:28:13;;;;;;;30.73;18.97;;;2.60;99.90;;;;;;4935952;29;20385;-72
2021/10/10 05:30:39;;;;;;;33.90;21.13;;;2.60;99.90;;;;;;4954572;29;20071;-72
2021/10/10 05:33:05;;;;;;;25.40;18.60;;;2.50;99.90;;;;;;4937590;29;20058;-73
2021/10/10 05:35:30;;;;;;;32.87;18.90;;;2.50;99.90;;;;;;4957167;28;20051;-72
2021/10/10 05:37:56;;;;;;;24.20;16.20;;;2.50;99.90;;;;;;4957415;28;20019;-72
2021/10/10 05:40:21;;;;;;;25.53;16.60;;;2.50;99.90;;;;;;4954517;29;20076;-73
2021/10/10 05:42:47;;;;;;;27.17;17.17;;;2.40;99.90;;;;;;4954515;29;20429;-73
2021/10/10 05:45:13;;;;;;;24.73;16.00;;;2.40;99.90;;;;;;4954594;29;20038;-73
2021/10/10 05:47:38;;;;;;;21.13;14.70;;;2.30;99.90;;;;;;4950462;29;20118;-73
2021/10/10 05:50:05;;;;;;;21.20;14.20;;;2.30;99.90;;;;;;4954436;29;20095;-73
2021/10/10 05:52:31;;;;;;;22.53;14.30;;;2.30;99.90;;;;;;4954161;29;20039;-73
2021/10/10 05:54:56;;;;;;;22.90;14.60;;;2.30;99.90;;;;;;4954560;29;20027;-73
2021/10/10 05:57:30;;;;;;;19.93;13.57;;;2.30;99.90;;;;;;4956617;28;20078;-73
2021/10/10 06:00:02;;;;;;;19.77;14.60;;;2.30;99.90;;;;;;4954618;29;20027;-73
2021/10/10 06:02:29;;;;;;;22.27;14.60;;;2.30;99.90;;;;;;4954920;29;20520;-73
2021/10/10 06:04:55;;;;;;;26.83;15.17;;;2.30;99.90;;;;;;4968648;28;20488;-73
2021/10/10 06:07:20;;;;;;;21.93;15.33;;;2.30;99.90;;;;;;4954803;29;20126;-73
2021/10/10 06:09:46;;;;;;;23.70;15.97;;;2.30;99.90;;;;;;4954738;29;20034;-73
2021/10/10 06:12:11;;;;;;;30.47;18.33;;;2.30;99.90;;;;;;4957951;28;20035;-73
2021/10/10 06:14:37;;;;;;;24.17;16.70;;;2.30;99.90;;;;;;4974085;28;20027;-73
2021/10/10 06:17:03;;;;;;;28.87;18.20;;;2.40;99.90;;;;;;4958782;28;20031;-73
2021/10/10 06:19:30;;;;;;;28.53;19.23;;;2.40;99.90;;;;;;4962308;28;20034;-73
2021/10/10 06:21:55;;;;;;;29.97;18.90;;;2.50;99.90;;;;;;4943224;29;20131;-73
2021/10/10 06:24:21;;;;;;;32.37;19.13;;;2.50;99.90;;;;;;4955020;29;20039;-73
2021/10/10 06:26:46;;;;;;;26.37;17.73;;;2.50;99.90;;;;;;4942058;29;20166;-74
2021/10/10 06:29:13;;;;;;;33.30;20.30;;;2.60;99.90;;;;;;4954051;29;20090;-74
2021/10/10 06:31:39;;;;;;;30.87;20.80;;;2.70;99.90;;;;;;4934206;29;20125;-74
2021/10/10 06:34:05;;;;;;;26.40;19.30;;;2.70;99.90;;;;;;4936051;29;20473;-73
2021/10/10 06:36:30;;;;;;;31.30;20.20;;;2.80;99.90;;;;;;4935868;29;20039;-74
2021/10/10 06:38:56;;;;;;;29.90;19.60;;;2.90;99.90;;;;;;4935822;29;20032;-74
2021/10/10 06:41:21;;;;;;;29.00;20.00;;;2.90;99.90;;;;;;4935786;29;20063;-74
2021/10/10 06:43:47;;;;;;;32.07;22.20;;;3.00;99.90;;;;;;4935727;29;20032;-74
2021/10/10 06:46:12;;;;;;;33.70;21.50;;;3.10;99.90;;;;;;4935645;29;20444;-74
2021/10/10 06:48:38;;;;;;;38.60;22.40;;;3.20;99.90;;;;;;4935498;29;20031;-74
2021/10/10 06:51:03;;;;;;;30.60;21.33;;;3.30;99.90;;;;;;4935732;29;20027;-74
2021/10/10 06:53:29;;;;;;;32.87;22.43;;;3.40;99.90;;;;;;4933890;29;20030;-74
2021/10/10 06:55:55;;;;;;;38.33;23.40;;;3.50;99.90;;;;;;4935475;29;20059;-74
2021/10/10 06:58:22;;;;;;;31.00;20.40;;;3.60;99.90;;;;;;4934397;29;20122;-73
2021/10/10 07:00:47;;;;;;;37.27;22.97;;;3.70;99.90;;;;;;4935501;29;20032;-74
2021/10/10 07:03:13;;;;;;;35.37;22.13;;;3.80;99.90;;;;;;4935717;29;20366;-74
2021/10/10 07:05:38;;;;;;;33.63;21.10;;;3.90;99.90;;;;;;4935490;29;20028;-74
2021/10/10 07:08:04;;;;;;;33.67;21.47;;;4.00;99.90;;;;;;4935202;29;20135;-74
2021/10/10 07:10:30;;;;;;;34.30;21.90;;;4.10;99.90;;;;;;4935461;29;20039;-74
2021/10/10 07:12:55;;;;;;;34.53;20.90;;;4.20;99.90;;;;;;4935538;29;20144;-74
2021/10/10 07:15:21;;;;;;;34.40;21.27;;;4.40;99.90;;;;;;4935516;29;20024;-74
2021/10/10 07:17:48;;;;;;;32.33;20.20;;;4.50;99.90;;;;;;4935540;29;20034;-74
2021/10/10 07:20:24;;;;;;;33.00;21.37;;;4.50;99.90;;;;;;4935494;29;20120;-74
2021/10/10 07:23:56;;;;;;;30.37;19.90;;;4.70;99.90;;;;;;4936777;29;20107;-74
2021/10/10 07:25:44;;;;;;;73.33;39.60;;;4.80;99.90;;;;;;4938033;29;20059;-74
2021/10/10 07:28:10;;;;;;;40.83;25.07;;;4.90;99.90;;;;;;4937895;29;20031;-74
2021/10/10 07:30:35;;;;;;;74.43;40.57;;;5.00;99.90;;;;;;4923850;29;20036;-74
2021/10/10 07:33:01;;;;;;;34.53;22.43;;;5.20;99.90;;;;;;4944791;29;20074;-74
2021/10/10 07:35:26;;;;;;;32.90;20.17;;;5.20;99.90;;;;;;4958136;29;20032;-74
2021/10/10 07:37:52;;;;;;;87.63;41.90;;;5.30;99.90;;;;;;4958072;29;20024;-74
2021/10/10 07:40:17;;;;;;;30.43;19.57;;;5.40;99.90;;;;;;4957913;29;20035;-74
2021/10/10 07:42:43;;;;;;;33.83;20.43;;;5.50;99.90;;;;;;4957718;29;20035;-74
2021/10/10 07:45:17;;;;;;;45.27;26.57;;;5.50;99.90;;;;;;4940533;29;20035;-74
2021/10/10 07:50:09;;;;;;;93.53;49.63;;;5.70;99.90;;;;;;4957560;29;20361;-74
2021/10/10 07:52:35;;;;;;;32.13;20.47;;;5.80;99.90;;;;;;4957404;29;20350;-74
2021/10/10 07:55:01;;;;;;;31.90;19.57;;;5.80;99.90;;;;;;4957529;29;20081;-74
2021/10/10 07:57:28;;;;;;;34.73;17.87;;;5.90;99.90;;;;;;4957572;29;20027;-74
2021/10/10 07:59:54;;;;;;;29.40;18.43;;;6.00;99.90;;;;;;4957556;29;20031;-74
2021/10/10 08:02:19;;;;;;;27.20;16.97;;;6.10;99.90;;;;;;4957451;29;20023;-74
2021/10/10 08:04:45;;;;;;;28.63;17.70;;;6.10;99.90;;;;;;4957126;29;20027;-74
2021/10/10 08:07:10;;;;;;;27.93;18.30;;;6.10;99.90;;;;;;4957090;29;20031;-74
2021/10/10 08:09:36;;;;;;;29.13;17.53;;;6.10;99.90;;;;;;4957280;29;20039;-74
2021/10/10 08:12:02;;;;;;;27.07;18.40;;;6.10;99.90;;;;;;4957160;29;20028;-74
2021/10/10 08:14:28;;;;;;;27.13;17.87;;;6.20;99.90;;;;;;4957284;29;20024;-74
2021/10/10 08:16:53;;;;;;;25.60;17.70;;;6.20;99.90;;;;;;4957186;29;20050;-74
2021/10/10 08:19:19;;;;;;;33.83;18.67;;;6.30;99.90;;;;;;4957136;29;20380;-74
2021/10/10 08:21:44;;;;;;;38.40;21.10;;;6.40;99.90;;;;;;4956971;29;20034;-74
2021/10/10 08:24:11;;;;;;;28.23;17.70;;;6.40;99.90;;;;;;4957044;29;20468;-74
2021/10/10 08:26:37;;;;;;;29.37;18.97;;;6.40;99.90;;;;;;4956905;29;20023;-74
2021/10/10 08:29:02;;;;;;;29.80;16.97;;;6.50;99.90;;;;;;4957012;29;20486;-74
2021/10/10 08:31:28;;;;;;;31.23;17.47;;;6.60;99.90;;;;;;4956826;29;20040;-74
2021/10/10 08:33:54;;;;;;;34.30;20.20;;;6.70;99.90;;;;;;4956356;28;20023;-74
2021/10/10 08:36:20;;;;;;;27.60;16.77;;;6.80;99.90;;;;;;4956700;29;20016;-74
2021/10/10 08:38:46;;;;;;;27.93;16.13;;;6.80;99.90;;;;;;4956810;29;20039;-74
2021/10/10 08:41:13;;;;;;;23.50;17.30;;;6.90;99.90;;;;;;4956632;29;20027;-76
2021/10/10 08:43:41;;;;;;;23.93;16.27;;;7.10;99.90;;;;;;4956739;29;20357;-76
2021/10/10 08:46:08;;;;;;;29.97;18.13;;;7.20;99.90;;;;;;4956433;29;20547;-76
2021/10/10 08:48:34;;;;;;;27.33;15.57;;;7.30;99.90;;;;;;4956315;29;20051;-76
2021/10/10 08:51:00;;;;;;;29.63;18.87;;;7.40;99.90;;;;;;4939216;29;20161;-76
2021/10/10 08:53:25;;;;;;;35.03;18.10;;;7.50;99.90;;;;;;4956285;29;20025;-76
2021/10/10 08:55:52;;;;;;;28.03;15.93;;;7.70;99.90;;;;;;4956311;29;20106;-76
2021/10/10 08:58:20;;;;;;;27.93;18.53;;;7.90;99.90;;;;;;4956218;29;20503;-76
2021/10/10 09:00:51;;;;;;;29.87;16.73;;;8.00;99.90;;;;;;4956196;29;20147;-76
2021/10/10 09:03:18;;;;;;;21.00;14.53;;;8.20;99.90;;;;;;4956037;29;20045;-76
2021/10/10 09:05:49;;;;;;;30.63;15.07;;;8.30;99.90;;;;;;4956255;29;20023;-76
2021/10/10 09:08:14;;;;;;;25.13;14.90;;;8.50;99.90;;;;;;4956108;29;20035;-76
2021/10/10 09:10:40;;;;;;;24.80;15.17;;;8.50;99.90;;;;;;4955984;29;20420;-76
2021/10/10 09:13:16;;;;;;;22.40;15.40;;;8.60;99.90;;;;;;4956052;29;20131;-75
2021/10/10 09:15:49;;;;;;;31.27;16.57;;;8.80;99.90;;;;;;4956190;29;20020;-76
2021/10/10 09:18:15;;;;;;;23.80;14.30;;;8.90;99.90;;;;;;4955944;29;20366;-76
2021/10/10 09:20:46;;;;;;;24.47;14.77;;;9.10;99.90;;;;;;4956104;29;20078;-76
2021/10/10 09:23:17;;;;;;;26.00;15.47;;;9.30;99.90;;;;;;4955624;29;20050;-76
2021/10/10 09:25:55;;;;;;;25.47;16.17;;;9.40;99.90;;;;;;4955942;29;20102;-76
2021/10/10 09:28:22;;;;;;;21.10;13.63;;;9.50;99.90;;;;;;4955760;29;20038;-76
2021/10/10 09:30:58;;;;;;;26.70;15.53;;;9.50;99.90;;;;;;4955678;29;20024;-76
2021/10/10 09:33:54;;;;;;;18.87;14.47;;;9.70;99.90;;;;;;4955763;29;20023;-76
2021/10/10 09:36:29;;;;;;;26.75;15.55;;;9.80;99.90;;;;;;4938248;29;20027;-76
2021/10/10 09:39:12;;;;;;;23.38;18.02;;;10.10;99.90;;;;;;4955498;29;20385;-76
2021/10/10 09:41:48;;;;;;;22.63;13.85;;;10.10;99.90;;;;;;4955451;29;20036;-76
2021/10/10 09:44:27;;;;;;;24.80;14.95;;;10.30;99.90;;;;;;4955394;29;20023;-76
2021/10/10 09:46:57;;;;;;;19.60;12.88;;;10.30;99.90;;;;;;4938095;29;20023;-76
2021/10/10 09:49:24;;;;;;;20.48;13.35;;;10.40;99.90;;;;;;4955369;29;20437;-76
2021/10/10 09:51:50;;;;;;;24.40;14.57;;;10.50;99.90;;;;;;4955688;29;20377;-76
2021/10/10 09:54:16;;;;;;;22.17;14.48;;;10.60;99.90;;;;;;4955408;29;20054;-76
2021/10/10 09:57:02;;;;;;;22.52;13.15;;;10.80;99.90;;;;;;4955211;29;20033;-76
2021/10/10 09:59:28;;;;;;;24.92;13.70;;;10.90;99.90;;;;;;4940661;29;20019;-76
2021/10/10 10:01:54;;;;;;;19.90;13.60;;;11.00;99.90;;;;;;4939400;29;20027;-76
2021/10/10 10:04:19;;;;;;;23.00;13.52;;;10.90;99.90;;;;;;4955063;29;20354;-76
2021/10/10 10:06:45;;;;;;;23.90;13.13;;;11.00;99.90;;;;;;4954988;29;20124;-76
2021/10/10 10:09:12;;;;;;;22.40;13.35;;;11.10;99.90;;;;;;4955159;29;20082;-76
2021/10/10 10:11:40;;;;;;;21.75;13.82;;;11.20;99.90;;;;;;4954920;29;20036;-75
2021/10/10 10:14:09;;;;;;;21.27;12.90;;;11.20;99.90;;;;;;4954779;29;20033;-76
2021/10/10 10:16:38;;;;;;;20.40;12.75;;;11.30;99.90;;;;;;4955120;29;20023;-75
2021/10/10 10:19:06;;;;;;;26.88;13.90;;;11.50;99.90;;;;;;4954542;29;20087;-75
2021/10/10 10:21:31;;;;;;;21.00;13.70;;;11.60;99.90;;;;;;4927444;29;20385;-76
2021/10/10 10:23:59;;;;;;;22.38;13.73;;;11.40;99.90;;;;;;4935781;29;20027;-75
2021/10/10 10:26:30;;;;;;;21.83;12.68;;;11.30;99.90;;;;;;4927485;29;20421;-76
2021/10/10 10:28:58;;;;;;;27.33;13.45;;;11.60;99.90;;;;;;4954897;29;20031;-76
2021/10/10 10:31:24;;;;;;;23.95;13.95;;;11.70;99.90;;;;;;4946985;29;20044;-76
2021/10/10 10:33:50;;;;;;;26.00;17.00;;;11.80;99.90;;;;;;4935694;29;20473;-76
2021/10/10 10:36:15;;;;;;;21.25;13.55;;;12.00;99.90;;;;;;4954102;28;20018;-76
2021/10/10 10:38:46;;;;;;;19.58;13.13;;;12.20;99.90;;;;;;4962357;28;20102;-76
2021/10/10 10:41:48;;;;;;;20.98;13.40;;;12.20;99.90;;;;;;4954827;29;20031;-76
2021/10/10 10:44:36;;;;;;;21.48;13.45;;;12.20;99.90;;;;;;4951394;29;20035;-76
2021/10/10 10:47:22;;;;;;;20.25;14.38;;;12.10;99.90;;;;;;4954837;29;20472;-76
2021/10/10 10:49:51;;;;;;;20.88;16.88;;;12.20;99.90;;;;;;4938206;29;20027;-75
2021/10/10 10:52:23;;;;;;;30.15;18.40;;;12.10;99.90;;;;;;4955075;29;20027;-76
2021/10/10 10:54:52;;;;;;;40.33;27.15;;;12.10;99.90;;;;;;4955141;29;20019;-76
2021/10/10 10:57:35;;;;;;;23.60;15.95;;;12.20;99.90;;;;;;4954823;28;20118;-77
2021/10/10 11:00:11;;;;;;;20.85;12.82;;;12.30;99.90;;;;;;4957809;28;20338;-75
2021/10/10 11:02:57;;;;;;;19.17;12.40;;;12.30;99.90;;;;;;4957084;29;20051;-75
2021/10/10 11:05:40;;;;;;;21.50;12.38;;;12.40;99.90;;;;;;4957247;29;20049;-76
2021/10/10 11:08:17;;;;;;;21.85;12.57;;;12.40;99.90;;;;;;4956818;29;20461;-76
2021/10/10 11:11:03;;;;;;;20.63;12.73;;;12.50;99.90;;;;;;4957298;29;20106;-76
2021/10/10 11:13:35;;;;;;;25.77;12.25;;;12.50;99.90;;;;;;4956686;29;20030;-75
2021/10/10 11:16:14;;;;;;;21.75;13.10;;;12.40;99.90;;;;;;4957021;29;20050;-76
2021/10/10 11:18:50;;;;;;;23.95;16.15;;;12.60;99.90;;;;;;4957190;29;20102;-76
2021/10/10 11:21:22;;;;;;;19.60;12.15;;;12.60;99.90;;;;;;4956649;29;20397;-76
2021/10/10 11:23:50;;;;;;;18.50;11.93;;;12.70;99.90;;;;;;4950474;29;20392;-76
2021/10/10 11:26:16;;;;;;;19.02;11.77;;;13.00;99.90;;;;;;4956662;28;20038;-76
2021/10/10 11:28:48;;;;;;;21.98;12.32;;;13.00;99.90;;;;;;4956526;29;20465;-76
2021/10/10 11:31:31;;;;;;;22.65;13.32;;;13.00;99.90;;;;;;4943461;29;20522;-76
2021/10/10 11:34:00;;;;;;;19.13;11.52;;;13.00;99.90;;;;;;4956319;29;20102;-75
2021/10/10 11:36:45;;;;;;;18.63;11.20;;;13.00;99.90;;;;;;4957208;29;20051;-71
2021/10/10 11:39:20;;;;;;;;;;;13.10;99.90;;;;;;4958062;29;20607;-73
2021/10/10 11:42:00;;;;;;;17.75;11.75;;;13.00;99.90;;;;;;4957510;29;19918;-74
2021/10/10 11:44:39;;;;;;;19.67;12.02;;;13.10;99.90;;;;;;4957875;29;20028;-74
2021/10/10 11:47:09;;;;;;;17.27;11.75;;;13.20;99.90;;;;;;4957535;29;20059;-73
2021/10/10 11:49:56;;;;;;;22.27;12.82;;;13.10;99.90;;;;;;4957889;29;20023;-74
2021/10/10 11:52:33;;;;;;;18.92;11.45;;;12.90;99.90;;;;;;4941243;29;20028;-74
2021/10/10 11:55:13;;;;;;;18.25;12.55;;;13.10;99.90;;;;;;4958922;28;20031;-75
2021/10/10 11:57:39;;;;;;;18.25;11.00;;;13.20;99.90;;;;;;4940852;29;20472;-75
2021/10/10 12:00:13;;;;;;;15.95;11.07;;;13.30;99.90;;;;;;4956046;29;20090;-75
2021/10/10 12:02:45;;;;;;;19.15;11.90;;;13.30;99.90;;;;;;4956268;29;20121;-75
2021/10/10 12:05:14;;;;;;;20.10;14.38;;;13.30;99.90;;;;;;4956123;29;20028;-75
2021/10/10 12:07:41;;;;;;;19.45;13.02;;;13.50;99.90;;;;;;4950603;29;20473;-75
2021/10/10 12:10:10;;;;;;;26.38;15.80;;;13.50;99.90;;;;;;4954271;28;20023;-75
2021/10/10 12:12:36;;;;;;;21.90;13.07;;;13.60;99.90;;;;;;4947958;29;20023;-76
2021/10/10 12:15:04;;;;;;;23.92;12.80;;;13.40;99.90;;;;;;4956142;29;20457;-75
2021/10/10 12:17:34;;;;;;;18.52;11.77;;;13.20;99.90;;;;;;4955915;29;20027;-75
2021/10/10 12:20:16;;;;;;;16.98;11.50;;;13.40;99.90;;;;;;4955464;29;20101;-75
2021/10/10 12:22:59;;;;;;;18.98;11.48;;;13.40;99.90;;;;;;4942656;29;20123;-74
2021/10/10 12:25:28;;;;;;;17.73;10.98;;;13.30;99.90;;;;;;4956137;29;20027;-74
2021/10/10 12:28:08;;;;;;;19.63;10.77;;;13.40;99.90;;;;;;4952493;29;20035;-72
2021/10/10 12:30:57;;;;;;;22.48;12.05;;;13.60;99.90;;;;;;4955377;29;20019;-74
2021/10/10 12:33:34;;;;;;;18.60;10.27;;;13.80;99.90;;;;;;4955326;29;20146;-74
2021/10/10 12:36:06;;;;;;;23.63;13.60;;;13.70;99.90;;;;;;4954120;29;20039;-73
2021/10/10 12:38:38;;;;;;;23.83;15.43;;;13.50;99.90;;;;;;4953079;29;20031;-73
2021/10/10 12:41:21;;;;;;;25.20;14.65;;;13.50;99.90;;;;;;4951158;28;20019;-73
2021/10/10 12:44:01;;;;;;;21.88;12.38;;;13.50;99.90;;;;;;4953035;29;20106;-73
2021/10/10 12:46:27;;;;;;;24.45;13.98;;;13.20;99.90;;;;;;4952803;28;20162;-69